< < Back
Terminal Aerodrome Forecast


Current Version              Previous Versions:   1  2  3  4  5  6  7  8  9  

Terminal Aerodrome Forecast

375
FTUS42 KTAE 280520
TAFDHN
TAF
KDHN 280520Z 2806/2906 00000KT P6SM SKC
     FM281400 10008KT P6SM SCT035
     FM281800 11008KT P6SM SHRA VCTS BKN050CB
     FM290300 VRB04KT P6SM SCT200=

Latest METAR

806
SAUS70 KWBC 280900 RRJ
MTRDHN
METAR KDHN 280853Z AUTO 08007KT 10SM CLR 23/21 A2998 RMK AO2 SLP147
T02280206 56009


USA.gov is the U.S. government's official web portal to all federal, state and local government web resources and services.